createdAt,value
2024-01-30T06:18:30.421Z,0.40
2024-01-30T06:21:32.886Z,0.32
2024-01-30T06:24:35.997Z,0.50
2024-01-30T06:27:37.921Z,1.10
2024-01-30T06:30:39.679Z,0.60
2024-01-30T06:33:43.423Z,0.40
2024-01-30T06:36:45.648Z,0.32
2024-01-30T06:39:47.492Z,0.55
2024-01-30T06:42:49.270Z,1.10
2024-01-30T06:45:52.959Z,0.73
2024-01-30T06:48:54.770Z,1.38
2024-01-30T06:51:56.997Z,0.93
2024-01-30T06:54:58.824Z,1.65
2024-01-30T06:58:00.932Z,1.10
2024-01-30T07:01:03.185Z,0.90
2024-01-30T07:04:05.170Z,1.60
2024-01-30T07:07:07.418Z,1.20
2024-01-30T07:10:09.886Z,2.97
2024-01-30T07:13:12.524Z,2.20
2024-01-30T07:16:14.585Z,1.42
2024-01-30T07:19:16.499Z,1.63
2024-01-30T07:22:18.369Z,2.78
2024-01-30T07:25:20.483Z,2.75
2024-01-30T07:28:22.411Z,1.63
2024-01-30T07:31:24.886Z,3.10
2024-01-30T07:34:26.866Z,4.25
2024-01-30T07:37:29.977Z,2.38
2024-01-30T07:40:32.228Z,3.60
2024-01-30T07:43:34.962Z,2.67
2024-01-30T07:46:36.986Z,4.25
2024-01-30T07:49:39.211Z,1.48
2024-01-30T07:52:41.088Z,1.60
2024-01-30T07:55:44.766Z,2.72
2024-01-30T07:58:46.541Z,2.42
2024-01-30T08:01:48.405Z,1.90
2024-01-30T08:04:50.805Z,2.50
2024-01-30T08:07:53.103Z,2.10
2024-01-30T08:10:57.762Z,1.67
2024-01-30T08:13:59.496Z,1.65
2024-01-30T08:17:01.251Z,2.47
2024-01-30T08:20:05.546Z,2.50
2024-01-30T08:23:07.500Z,1.85
2024-01-30T08:26:09.400Z,1.85
2024-01-30T08:29:11.678Z,1.75
2024-01-30T08:32:13.554Z,0.90
2024-01-30T08:35:17.178Z,1.63
2024-01-30T08:38:19.323Z,2.10
2024-01-30T08:41:21.157Z,3.40
2024-01-30T08:44:22.932Z,1.85
2024-01-30T08:47:24.881Z,1.88
2024-01-30T08:50:26.725Z,1.30
2024-01-30T08:53:28.519Z,0.93
2024-01-30T08:56:30.434Z,1.48
2024-01-30T08:59:32.241Z,2.67
2024-01-30T09:02:34.927Z,2.00
2024-01-30T09:05:36.812Z,0.93
2024-01-30T09:08:38.882Z,0.88
2024-01-30T09:11:40.639Z,1.42
2024-01-30T09:14:43.016Z,1.15
2024-01-30T09:17:44.872Z,0.70
2024-01-30T09:20:48.678Z,0.57
2024-01-30T09:23:50.477Z,0.52
2024-01-30T09:26:52.477Z,1.08
2024-01-30T09:29:54.246Z,1.40
2024-01-30T09:32:56.121Z,1.65
2024-01-30T09:35:58.105Z,0.40
2024-01-30T09:39:00.238Z,0.95
2024-01-30T09:42:03.904Z,0.55
2024-01-30T09:45:06.640Z,0.43
2024-01-30T09:48:08.697Z,1.38
2024-01-30T09:51:13.932Z,0.70
2024-01-30T09:54:16.542Z,1.23
2024-01-30T09:57:18.472Z,2.05
2024-01-30T10:00:20.520Z,1.77
2024-01-30T10:03:22.266Z,2.38
2024-01-30T10:06:25.634Z,0.85
2024-01-30T10:09:27.420Z,0.40
2024-01-30T10:12:30.450Z,1.92
2024-01-30T10:15:32.238Z,0.40
2024-01-30T10:18:33.983Z,1.02
2024-01-30T10:21:36.175Z,0.93
2024-01-30T10:24:38.133Z,0.73
2024-01-30T10:27:41.048Z,1.48
2024-01-30T10:30:42.946Z,0.60
2024-01-30T10:33:45.412Z,0.73
2024-01-30T10:36:48.286Z,0.43
2024-01-30T10:39:50.085Z,0.60
2024-01-30T10:42:51.902Z,0.30
2024-01-30T10:45:53.981Z,1.67
2024-01-30T10:48:59.960Z,1.40
2024-01-30T10:52:01.842Z,2.03
2024-01-30T10:55:05.323Z,2.25
2024-01-30T10:58:07.422Z,0.90
2024-01-30T11:01:09.649Z,0.85
2024-01-30T11:04:11.683Z,3.25
2024-01-30T11:07:21.975Z,2.08
2024-01-30T11:10:25.684Z,1.05
2024-01-30T11:13:31.708Z,0.65
2024-01-30T11:16:34.492Z,1.27
2024-01-30T11:19:36.711Z,1.23
2024-01-30T11:22:38.711Z,1.00
2024-01-30T11:25:40.647Z,0.60
2024-01-30T11:28:42.691Z,1.38
2024-01-30T11:31:58.116Z,0.77
2024-01-30T11:35:00.394Z,0.75
2024-01-30T11:38:03.109Z,0.70
2024-01-30T11:41:05.561Z,0.70
2024-01-30T11:44:07.436Z,0.70
2024-01-30T11:47:09.372Z,0.70
2024-01-30T11:50:11.958Z,0.50
2024-01-30T11:53:13.824Z,0.93
2024-01-30T11:56:15.830Z,0.40
2024-01-30T11:59:17.621Z,0.50
2024-01-30T12:02:19.426Z,1.40
2024-01-30T12:05:21.732Z,0.57
2024-01-30T12:08:23.688Z,1.65
2024-01-30T12:11:25.635Z,0.28
2024-01-30T12:14:27.576Z,2.92
2024-01-30T12:17:33.256Z,2.28
2024-01-30T12:20:35.222Z,6.93
2024-01-30T12:23:37.160Z,3.35
2024-01-30T12:26:39.130Z,4.55
2024-01-30T12:29:43.458Z,1.63
2024-01-30T12:32:46.237Z,2.83
2024-01-30T12:35:58.634Z,1.77
2024-01-30T12:39:05.971Z,0.52
2024-01-30T12:42:07.758Z,0.52
2024-01-30T12:45:10.019Z,0.43
2024-01-30T12:48:11.973Z,0.73
2024-01-30T12:51:13.818Z,0.93
2024-01-30T12:54:15.685Z,0.75
2024-01-30T12:57:18.378Z,2.15
2024-01-30T13:00:20.378Z,0.82
2024-01-30T13:03:22.220Z,0.60
2024-01-30T13:06:24.348Z,0.90
2024-01-30T13:09:26.176Z,0.77
2024-01-30T13:12:27.901Z,0.57
2024-01-30T13:15:29.680Z,1.33
2024-01-30T13:18:31.643Z,0.52
2024-01-30T13:21:33.478Z,2.47
2024-01-30T13:24:35.214Z,0.52
2024-01-30T13:27:38.312Z,0.30
2024-01-30T13:30:40.260Z,1.80
2024-01-30T13:33:42.450Z,1.40
2024-01-30T13:36:46.135Z,0.35
2024-01-30T13:39:47.994Z,1.27
2024-01-30T13:42:49.770Z,1.20
2024-01-30T13:45:51.771Z,3.15
2024-01-30T13:48:53.708Z,0.43
2024-01-30T13:51:56.758Z,2.13
2024-01-30T13:54:59.227Z,0.80
2024-01-30T13:58:02.706Z,1.42
2024-01-30T14:01:04.837Z,1.42
2024-01-30T14:04:09.899Z,0.73
2024-01-30T14:07:13.432Z,1.85
2024-01-30T14:10:15.850Z,0.60
2024-01-30T14:13:18.062Z,0.93
2024-01-30T14:16:20.777Z,0.50
2024-01-30T14:19:23.085Z,0.30
2024-01-30T14:22:25.016Z,0.50
2024-01-30T14:25:27.109Z,0.90
2024-01-30T14:28:29.221Z,0.95
2024-01-30T14:31:31.044Z,0.90
2024-01-30T14:34:33.089Z,0.57
2024-01-30T14:37:35.075Z,1.00
2024-01-30T14:40:37.007Z,3.03
2024-01-30T14:43:38.826Z,1.98
2024-01-30T14:46:40.647Z,1.38
2024-01-30T14:49:42.484Z,2.20
2024-01-30T14:52:44.291Z,2.55
2024-01-30T14:55:46.265Z,1.10
2024-01-30T14:58:48.056Z,1.50
2024-01-30T15:01:50.072Z,0.30
2024-01-30T15:04:52.223Z,0.55
2024-01-30T15:07:54.771Z,2.40
2024-01-30T15:10:56.677Z,0.63
2024-01-30T15:13:58.413Z,0.90
2024-01-30T15:17:00.349Z,0.85
2024-01-30T15:20:02.244Z,0.90
2024-01-30T15:23:04.197Z,0.90
2024-01-30T15:26:06.156Z,0.60
2024-01-30T15:29:08.018Z,0.82
2024-01-30T15:32:09.776Z,1.13
2024-01-30T15:35:11.589Z,1.48
2024-01-30T15:38:14.227Z,1.10
2024-01-30T15:41:15.978Z,0.90
2024-01-30T15:44:17.726Z,1.40
2024-01-30T15:47:19.767Z,1.83
2024-01-30T15:50:21.887Z,1.88
2024-01-30T15:53:23.790Z,0.40
2024-01-30T15:56:25.749Z,1.27
2024-01-30T15:59:28.264Z,0.70
2024-01-30T16:02:30.571Z,0.40
2024-01-30T16:05:32.584Z,0.95
2024-01-30T16:08:34.812Z,1.33
2024-01-30T16:11:39.816Z,0.30
2024-01-30T16:14:44.035Z,1.15
2024-01-30T16:17:45.910Z,2.47
2024-01-30T16:20:47.699Z,1.23
2024-01-30T16:23:50.114Z,0.70
2024-01-30T16:26:52.135Z,0.75
2024-01-30T16:29:53.975Z,0.77
2024-01-30T16:32:55.847Z,0.68
2024-01-30T16:36:01.041Z,0.95
2024-01-30T16:39:04.474Z,0.73
2024-01-30T16:42:08.133Z,0.50
2024-01-30T16:45:09.947Z,0.85
2024-01-30T16:48:16.070Z,3.88
2024-01-30T16:51:18.036Z,0.70
2024-01-30T16:54:20.089Z,2.28
2024-01-30T16:57:22.107Z,0.98
2024-01-30T17:00:23.972Z,2.05
2024-01-30T17:03:25.690Z,1.40
2024-01-30T17:06:27.655Z,1.15
2024-01-30T17:09:29.409Z,2.25
2024-01-30T17:12:32.275Z,5.80
2024-01-30T17:15:35.568Z,1.17
2024-01-30T17:18:37.405Z,2.60
2024-01-30T17:21:48.055Z,2.72
2024-01-30T17:24:50.956Z,1.92
2024-01-30T17:27:53.355Z,1.80
2024-01-30T17:30:55.178Z,1.83
2024-01-30T17:33:57.083Z,2.55
2024-01-30T17:36:59.309Z,2.35
2024-01-30T17:40:01.190Z,1.40
2024-01-30T17:43:02.959Z,1.90
2024-01-30T17:46:05.300Z,2.17
2024-01-30T17:49:07.619Z,2.85
2024-01-30T17:52:09.658Z,1.40
2024-01-30T17:55:11.674Z,2.55
2024-01-30T17:58:13.513Z,1.77
2024-01-30T18:01:16.381Z,1.50
2024-01-30T18:04:19.023Z,2.35
2024-01-30T18:07:21.869Z,1.98
2024-01-30T18:10:23.823Z,2.38
2024-01-30T18:13:25.699Z,2.15
2024-01-30T18:16:27.549Z,1.25
2024-01-30T18:19:29.478Z,1.52
2024-01-30T18:22:31.360Z,3.10
2024-01-30T18:25:33.228Z,1.38
2024-01-30T18:28:35.313Z,2.95
2024-01-30T18:31:39.018Z,2.85
2024-01-30T18:34:41.110Z,1.70
2024-01-30T18:37:43.092Z,2.42
2024-01-30T18:40:45.142Z,1.17
2024-01-30T18:43:46.959Z,5.55
2024-01-30T18:46:49.970Z,2.55
2024-01-30T18:49:52.582Z,3.40
2024-01-30T18:52:54.604Z,3.53
2024-01-30T18:55:56.657Z,2.70
2024-01-30T18:58:58.483Z,2.47
2024-01-30T19:02:00.354Z,0.90
2024-01-30T19:05:02.415Z,1.40
2024-01-30T19:08:04.535Z,0.90
2024-01-30T19:11:06.440Z,1.35
2024-01-30T19:14:08.233Z,2.90
2024-01-30T19:17:09.977Z,3.13
2024-01-30T19:20:13.577Z,1.98
2024-01-30T19:23:19.758Z,3.47
2024-01-30T19:26:21.725Z,1.15
2024-01-30T19:29:23.513Z,2.10
2024-01-30T19:32:25.803Z,2.85
2024-01-30T19:35:27.556Z,3.58
2024-01-30T19:38:29.498Z,4.32
2024-01-30T19:41:31.209Z,4.35
2024-01-30T19:44:33.058Z,4.55
2024-01-30T19:47:35.642Z,5.07
2024-01-30T19:50:37.401Z,2.30
2024-01-30T19:53:39.871Z,3.40
2024-01-30T19:56:42.303Z,3.88
2024-01-30T19:59:44.049Z,2.28
2024-01-30T20:02:45.870Z,2.70
2024-01-30T20:05:48.042Z,2.72
2024-01-30T20:08:49.961Z,2.55
2024-01-30T20:11:51.725Z,2.88
2024-01-30T20:14:53.520Z,2.50
2024-01-30T20:17:55.355Z,3.42
2024-01-30T20:20:57.143Z,3.83
2024-01-30T20:23:59.075Z,2.13
2024-01-30T20:27:01.530Z,3.10
2024-01-30T20:30:04.014Z,4.28
2024-01-30T20:33:06.008Z,2.00
2024-01-30T20:36:08.480Z,4.20
2024-01-30T20:39:11.692Z,2.47
2024-01-30T20:42:13.422Z,3.38
2024-01-30T20:45:16.183Z,4.00
2024-01-30T20:48:18.871Z,3.85
2024-01-30T20:51:20.693Z,1.95
2024-01-30T20:54:22.476Z,2.05
2024-01-30T20:57:24.404Z,4.10
2024-01-30T21:00:26.497Z,3.25
2024-01-30T21:03:30.256Z,3.53
2024-01-30T21:06:32.368Z,3.58
2024-01-30T21:09:34.164Z,4.38
2024-01-30T21:12:36.212Z,3.17
2024-01-30T21:15:37.956Z,4.82
2024-01-30T21:18:43.569Z,3.47
2024-01-30T21:21:45.491Z,3.95
2024-01-30T21:24:47.213Z,5.25
2024-01-30T21:27:49.203Z,3.88
2024-01-30T21:30:50.986Z,5.28
2024-01-30T21:33:53.709Z,3.42
2024-01-30T21:36:55.715Z,6.30
2024-01-30T21:39:57.624Z,4.95
2024-01-30T21:42:59.400Z,6.03
2024-01-30T21:46:01.387Z,5.25
2024-01-30T21:49:03.434Z,8.30
2024-01-30T21:52:06.551Z,6.22
2024-01-30T21:55:09.876Z,7.32
2024-01-30T21:58:11.916Z,7.10
2024-01-30T22:01:13.805Z,5.22
2024-01-30T22:04:17.725Z,4.55
2024-01-30T22:07:19.698Z,5.30
2024-01-30T22:10:21.581Z,3.70
2024-01-30T22:13:25.510Z,5.05
2024-01-30T22:16:28.077Z,8.10
2024-01-30T22:19:29.933Z,4.60
2024-01-30T22:22:31.879Z,5.10
2024-01-30T22:25:33.817Z,7.50
2024-01-30T22:28:35.778Z,4.47
2024-01-30T22:31:37.760Z,5.72
2024-01-30T22:34:39.721Z,4.85
2024-01-30T22:37:41.704Z,8.40
2024-01-30T22:40:43.505Z,5.72
2024-01-30T22:43:45.502Z,5.80
2024-01-30T22:46:47.503Z,6.38
2024-01-30T22:49:49.344Z,4.88
2024-01-30T22:52:52.572Z,6.60
